Aviation Digital Data Service (ADDS)

Output produced by METARs form (0504 UTC 24 November 2014)
found at http://aviationweather.gov/adds/metars/
 
KRUT 232333Z 2400/2424 14006KT P6SM BKN050 
     FM240900 14012KT 4SM -RA BR OVC015 
     FM241200 15010KT 2SM RA BR OVC007 
     FM241600 20010KT 4SM BR OVC015 AMD LTD TO CLD VIS AND WIND